This is the latest recevied weather packets stored in our database for station/object VA7NEZ. If no packets are shown the sender has not sent any weather packets the latest 10 day(s).
| Time | Temp. | Humidity | Pressure | Rain* | Wind** | Luminosity | Snow |
|---|---|---|---|---|---|---|---|
| 1778212101 | 20.56° C | 36% | 1011.2 hPa | 0 mm | - | - | - |
| 1778211622 | 20.56° C | 37% | 1011.3 hPa | 0 mm | - | - | - |
| 1778211067 | 21.67° C | 37% | 1011.2 hPa | 0 mm | - | - | - |
| 1778209937 | 23.33° C | 27% | 1011.3 hPa | 0 mm | - | - | - |
| 1778209352 | 23.89° C | 27% | 1011.1 hPa | 0 mm | - | - | - |
| 1778208872 | 25° C | 26% | 1011.2 hPa | 0 mm | - | - | - |
| 1778208332 | 25.56° C | 26% | 1011.1 hPa | 0 mm | - | - | - |
| 1778207732 | 0° C | 100% | 1011.1 hPa | 0 mm | - | - | - |
| 1778207227 | 26.67° C | 23% | 1011.2 hPa | 0 mm | - | - | - |
| 1778206692 | 28.33° C | 21% | 1011.2 hPa | 0 mm | - | - | - |
| 1778206118 | 28.33° C | 20% | 1011 hPa | 0 mm | - | - | - |
| 1778205587 | 26.67° C | 20% | 1010.9 hPa | 0 mm | - | - | - |
| 1778205087 | 27.78° C | 20% | 1011 hPa | 0 mm | - | - | - |
| 1778204547 | 27.78° C | 19% | 1010.9 hPa | 0 mm | - | - | - |
| 1778202898 | 0° C | 100% | 1011 hPa | 0 mm | - | - | - |
| 1778202378 | 30.56° C | 18% | 1011 hPa | 0 mm | - | - | - |
| 1778201793 | 30.56° C | 18% | 1011.2 hPa | 0 mm | - | - | - |
| 1778201278 | 30° C | 17% | 1011.4 hPa | 0 mm | - | - | - |
| 1778200767 | 30.56° C | 19% | 1011.3 hPa | 0 mm | - | - | - |
| 1778200282 | 29.44° C | 20% | 1011.5 hPa | 0 mm | - | - | - |
| 1778199712 | 29.44° C | 20% | 1011.3 hPa | 0 mm | - | - | - |
| 1778199207 | 30.56° C | 21% | 1011.5 hPa | 0 mm | - | - | - |
| 1778198677 | 32.22° C | 20% | 1011.2 hPa | 0 mm | - | - | - |
| 1778197492 | 30° C | 19% | 1011.7 hPa | 0 mm | - | - | - |
| 1778196402 | 35.56° C | 15% | 1011.8 hPa | 0 mm | - | - | - |
* Rain latest hour (hover to see other rain measurements)
** Current wind speed in m/s (hover to see current wind gust speed)